sensor_id;sensor_type;location;lat;lon;timestamp;P1;durP1;ratioP1;P2;durP2;ratioP2
67272;SDS011;54190;49.770;9.250;2022-07-29T00:00:48;5.03;;;3.27;;
67272;SDS011;54190;49.770;9.250;2022-07-29T00:03:14;5.03;;;3.40;;
67272;SDS011;54190;49.770;9.250;2022-07-29T00:05:40;4.57;;;3.50;;
67272;SDS011;54190;49.770;9.250;2022-07-29T00:08:06;8.87;;;3.83;;
67272;SDS011;54190;49.770;9.250;2022-07-29T00:10:33;7.90;;;3.90;;
67272;SDS011;54190;49.770;9.250;2022-07-29T00:12:59;6.77;;;3.40;;
67272;SDS011;54190;49.770;9.250;2022-07-29T00:15:25;7.20;;;3.47;;
67272;SDS011;54190;49.770;9.250;2022-07-29T00:17:51;6.20;;;4.47;;
67272;SDS011;54190;49.770;9.250;2022-07-29T00:20:17;8.67;;;3.80;;
67272;SDS011;54190;49.770;9.250;2022-07-29T00:22:42;11.87;;;4.40;;
67272;SDS011;54190;49.770;9.250;2022-07-29T00:25:08;6.30;;;3.83;;
67272;SDS011;54190;49.770;9.250;2022-07-29T00:27:35;8.40;;;4.17;;
67272;SDS011;54190;49.770;9.250;2022-07-29T00:30:02;5.90;;;3.67;;
67272;SDS011;54190;49.770;9.250;2022-07-29T00:32:28;8.03;;;4.40;;
67272;SDS011;54190;49.770;9.250;2022-07-29T00:34:54;7.27;;;3.67;;
67272;SDS011;54190;49.770;9.250;2022-07-29T00:37:38;7.63;;;4.50;;
67272;SDS011;54190;49.770;9.250;2022-07-29T00:40:05;9.70;;;4.87;;
67272;SDS011;54190;49.770;9.250;2022-07-29T00:42:40;10.83;;;4.70;;
67272;SDS011;54190;49.770;9.250;2022-07-29T00:45:10;7.40;;;4.43;;
67272;SDS011;54190;49.770;9.250;2022-07-29T00:47:37;7.37;;;4.43;;
67272;SDS011;54190;49.770;9.250;2022-07-29T00:50:03;12.03;;;4.70;;
67272;SDS011;54190;49.770;9.250;2022-07-29T00:52:30;7.43;;;4.40;;
67272;SDS011;54190;49.770;9.250;2022-07-29T00:54:57;7.57;;;4.30;;
67272;SDS011;54190;49.770;9.250;2022-07-29T00:57:23;8.27;;;4.10;;
67272;SDS011;54190;49.770;9.250;2022-07-29T00:59:48;8.03;;;4.67;;
67272;SDS011;54190;49.770;9.250;2022-07-29T01:02:14;11.33;;;4.80;;
67272;SDS011;54190;49.770;9.250;2022-07-29T01:04:40;9.30;;;4.30;;
67272;SDS011;54190;49.770;9.250;2022-07-29T01:07:06;9.30;;;4.30;;
67272;SDS011;54190;49.770;9.250;2022-07-29T01:09:32;9.10;;;4.00;;
67272;SDS011;54190;49.770;9.250;2022-07-29T01:12:00;7.77;;;4.33;;
67272;SDS011;54190;49.770;9.250;2022-07-29T01:14:27;8.47;;;4.33;;
67272;SDS011;54190;49.770;9.250;2022-07-29T01:17:06;5.70;;;3.63;;
67272;SDS011;54190;49.770;9.250;2022-07-29T01:19:47;11.40;;;3.90;;
67272;SDS011;54190;49.770;9.250;2022-07-29T01:22:31;10.60;;;4.30;;
67272;SDS011;54190;49.770;9.250;2022-07-29T01:30:35;6.10;;;3.93;;
67272;SDS011;54190;49.770;9.250;2022-07-29T01:33:05;6.73;;;3.97;;
67272;SDS011;54190;49.770;9.250;2022-07-29T01:35:43;8.00;;;4.47;;
67272;SDS011;54190;49.770;9.250;2022-07-29T01:38:43;7.30;;;4.50;;
67272;SDS011;54190;49.770;9.250;2022-07-29T01:41:05;8.53;;;4.07;;
67272;SDS011;54190;49.770;9.250;2022-07-29T01:43:56;9.17;;;3.90;;
67272;SDS011;54190;49.770;9.250;2022-07-29T01:46:27;9.50;;;4.40;;
67272;SDS011;54190;49.770;9.250;2022-07-29T01:49:10;10.80;;;4.43;;
67272;SDS011;54190;49.770;9.250;2022-07-29T01:51:46;7.50;;;4.63;;
67272;SDS011;54190;49.770;9.250;2022-07-29T01:54:27;9.43;;;3.80;;
67272;SDS011;54190;49.770;9.250;2022-07-29T01:57:00;7.00;;;3.73;;
67272;SDS011;54190;49.770;9.250;2022-07-29T01:59:30;7.07;;;4.20;;
67272;SDS011;54190;49.770;9.250;2022-07-29T02:01:59;9.33;;;4.30;;
67272;SDS011;54190;49.770;9.250;2022-07-29T02:04:27;7.17;;;3.80;;
67272;SDS011;54190;49.770;9.250;2022-07-29T02:06:55;9.97;;;4.20;;
67272;SDS011;54190;49.770;9.250;2022-07-29T02:09:25;11.47;;;4.07;;
67272;SDS011;54190;49.770;9.250;2022-07-29T02:11:53;5.50;;;4.07;;
67272;SDS011;54190;49.770;9.250;2022-07-29T02:14:22;5.93;;;4.00;;
67272;SDS011;54190;49.770;9.250;2022-07-29T02:16:49;7.07;;;3.83;;
67272;SDS011;54190;49.770;9.250;2022-07-29T02:19:19;5.00;;;3.93;;
67272;SDS011;54190;49.770;9.250;2022-07-29T02:21:47;7.33;;;4.07;;
67272;SDS011;54190;49.770;9.250;2022-07-29T02:24:14;10.00;;;4.07;;
67272;SDS011;54190;49.770;9.250;2022-07-29T02:26:42;5.10;;;3.83;;
67272;SDS011;54190;49.770;9.250;2022-07-29T02:29:09;7.53;;;3.80;;
67272;SDS011;54190;49.770;9.250;2022-07-29T02:31:36;6.17;;;3.87;;
67272;SDS011;54190;49.770;9.250;2022-07-29T02:34:05;7.13;;;3.77;;
67272;SDS011;54190;49.770;9.250;2022-07-29T02:36:33;6.17;;;4.33;;
67272;SDS011;54190;49.770;9.250;2022-07-29T02:39:00;4.97;;;3.57;;
67272;SDS011;54190;49.770;9.250;2022-07-29T02:41:31;6.70;;;3.90;;
67272;SDS011;54190;49.770;9.250;2022-07-29T02:44:06;7.63;;;4.23;;
67272;SDS011;54190;49.770;9.250;2022-07-29T02:46:35;4.73;;;3.60;;
67272;SDS011;54190;49.770;9.250;2022-07-29T02:49:48;6.50;;;4.23;;
67272;SDS011;54190;49.770;9.250;2022-07-29T02:51:55;4.80;;;3.73;;
67272;SDS011;54190;49.770;9.250;2022-07-29T02:57:04;6.63;;;4.30;;
67272;SDS011;54190;49.770;9.250;2022-07-29T02:59:36;5.13;;;3.80;;
67272;SDS011;54190;49.770;9.250;2022-07-29T03:02:02;4.83;;;3.80;;
67272;SDS011;54190;49.770;9.250;2022-07-29T03:04:31;6.37;;;4.23;;
67272;SDS011;54190;49.770;9.250;2022-07-29T03:06:59;8.20;;;4.30;;
67272;SDS011;54190;49.770;9.250;2022-07-29T03:09:25;4.17;;;3.53;;
67272;SDS011;54190;49.770;9.250;2022-07-29T03:11:52;5.57;;;4.30;;
67272;SDS011;54190;49.770;9.250;2022-07-29T03:14:19;7.10;;;4.30;;
67272;SDS011;54190;49.770;9.250;2022-07-29T03:16:48;5.07;;;4.07;;
67272;SDS011;54190;49.770;9.250;2022-07-29T03:19:14;4.73;;;3.60;;
67272;SDS011;54190;49.770;9.250;2022-07-29T03:21:41;5.47;;;4.30;;
67272;SDS011;54190;49.770;9.250;2022-07-29T03:24:07;9.57;;;4.20;;
67272;SDS011;54190;49.770;9.250;2022-07-29T03:26:33;8.83;;;4.57;;
67272;SDS011;54190;49.770;9.250;2022-07-29T03:28:59;6.30;;;4.30;;
67272;SDS011;54190;49.770;9.250;2022-07-29T03:31:25;6.87;;;4.50;;
67272;SDS011;54190;49.770;9.250;2022-07-29T03:33:50;7.67;;;4.60;;
67272;SDS011;54190;49.770;9.250;2022-07-29T03:36:16;7.50;;;4.33;;
67272;SDS011;54190;49.770;9.250;2022-07-29T03:38:42;8.77;;;4.00;;
67272;SDS011;54190;49.770;9.250;2022-07-29T03:41:11;7.23;;;4.90;;
67272;SDS011;54190;49.770;9.250;2022-07-29T03:43:40;7.90;;;4.53;;
67272;SDS011;54190;49.770;9.250;2022-07-29T03:46:07;7.37;;;4.60;;
67272;SDS011;54190;49.770;9.250;2022-07-29T03:48:36;5.90;;;4.10;;
67272;SDS011;54190;49.770;9.250;2022-07-29T03:51:05;6.27;;;4.60;;
67272;SDS011;54190;49.770;9.250;2022-07-29T03:53:31;6.00;;;4.27;;
67272;SDS011;54190;49.770;9.250;2022-07-29T03:55:58;6.03;;;4.30;;
67272;SDS011;54190;49.770;9.250;2022-07-29T03:58:26;7.17;;;4.57;;
67272;SDS011;54190;49.770;9.250;2022-07-29T04:00:53;9.70;;;5.00;;
67272;SDS011;54190;49.770;9.250;2022-07-29T04:03:20;8.90;;;5.13;;
67272;SDS011;54190;49.770;9.250;2022-07-29T04:05:57;6.63;;;5.07;;
67272;SDS011;54190;49.770;9.250;2022-07-29T04:08:27;7.80;;;4.60;;
67272;SDS011;54190;49.770;9.250;2022-07-29T04:10:52;6.60;;;4.70;;
67272;SDS011;54190;49.770;9.250;2022-07-29T04:13:19;7.27;;;4.20;;
67272;SDS011;54190;49.770;9.250;2022-07-29T04:15:45;7.00;;;5.13;;
67272;SDS011;54190;49.770;9.250;2022-07-29T04:18:11;7.07;;;5.10;;
67272;SDS011;54190;49.770;9.250;2022-07-29T04:20:36;7.60;;;5.10;;
67272;SDS011;54190;49.770;9.250;2022-07-29T04:23:02;6.47;;;5.07;;
67272;SDS011;54190;49.770;9.250;2022-07-29T04:25:28;7.73;;;5.40;;
67272;SDS011;54190;49.770;9.250;2022-07-29T04:27:54;8.43;;;5.60;;
67272;SDS011;54190;49.770;9.250;2022-07-29T04:30:25;7.50;;;5.30;;
67272;SDS011;54190;49.770;9.250;2022-07-29T04:32:52;13.23;;;5.93;;
67272;SDS011;54190;49.770;9.250;2022-07-29T04:35:18;8.57;;;5.40;;
67272;SDS011;54190;49.770;9.250;2022-07-29T04:37:44;6.83;;;5.30;;
67272;SDS011;54190;49.770;9.250;2022-07-29T04:40:10;10.60;;;5.80;;
67272;SDS011;54190;49.770;9.250;2022-07-29T04:42:37;8.57;;;4.97;;
67272;SDS011;54190;49.770;9.250;2022-07-29T04:45:03;8.50;;;5.83;;
67272;SDS011;54190;49.770;9.250;2022-07-29T04:47:30;8.07;;;5.47;;
67272;SDS011;54190;49.770;9.250;2022-07-29T04:49:55;7.17;;;5.73;;
67272;SDS011;54190;49.770;9.250;2022-07-29T04:52:21;16.77;;;5.70;;
67272;SDS011;54190;49.770;9.250;2022-07-29T04:54:47;6.67;;;4.90;;
67272;SDS011;54190;49.770;9.250;2022-07-29T04:57:14;12.97;;;5.30;;
67272;SDS011;54190;49.770;9.250;2022-07-29T04:59:39;9.20;;;5.10;;
67272;SDS011;54190;49.770;9.250;2022-07-29T05:02:07;9.80;;;5.20;;
67272;SDS011;54190;49.770;9.250;2022-07-29T05:04:33;8.93;;;4.90;;
67272;SDS011;54190;49.770;9.250;2022-07-29T05:06:59;5.30;;;4.80;;
67272;SDS011;54190;49.770;9.250;2022-07-29T05:09:25;6.40;;;4.73;;
67272;SDS011;54190;49.770;9.250;2022-07-29T05:11:51;10.87;;;5.63;;
67272;SDS011;54190;49.770;9.250;2022-07-29T05:14:16;6.90;;;4.60;;
67272;SDS011;54190;49.770;9.250;2022-07-29T05:16:42;8.33;;;4.83;;
67272;SDS011;54190;49.770;9.250;2022-07-29T05:19:08;14.37;;;4.60;;
67272;SDS011;54190;49.770;9.250;2022-07-29T05:21:34;10.10;;;4.83;;
67272;SDS011;54190;49.770;9.250;2022-07-29T05:24:00;8.40;;;4.50;;
67272;SDS011;54190;49.770;9.250;2022-07-29T05:26:26;6.10;;;4.47;;
67272;SDS011;54190;49.770;9.250;2022-07-29T05:28:52;7.43;;;3.90;;
67272;SDS011;54190;49.770;9.250;2022-07-29T05:31:18;6.47;;;4.27;;
67272;SDS011;54190;49.770;9.250;2022-07-29T05:33:44;6.57;;;4.40;;
67272;SDS011;54190;49.770;9.250;2022-07-29T05:36:10;6.20;;;4.17;;
67272;SDS011;54190;49.770;9.250;2022-07-29T05:38:36;8.50;;;4.80;;
67272;SDS011;54190;49.770;9.250;2022-07-29T05:41:02;12.53;;;4.50;;
67272;SDS011;54190;49.770;9.250;2022-07-29T05:43:29;9.53;;;4.60;;
67272;SDS011;54190;49.770;9.250;2022-07-29T05:45:55;10.60;;;4.60;;
67272;SDS011;54190;49.770;9.250;2022-07-29T05:48:21;7.53;;;4.63;;
67272;SDS011;54190;49.770;9.250;2022-07-29T05:50:46;9.63;;;4.90;;
67272;SDS011;54190;49.770;9.250;2022-07-29T05:53:13;6.80;;;4.80;;
67272;SDS011;54190;49.770;9.250;2022-07-29T05:55:38;5.97;;;4.47;;
67272;SDS011;54190;49.770;9.250;2022-07-29T05:58:04;6.90;;;4.80;;
67272;SDS011;54190;49.770;9.250;2022-07-29T06:00:30;7.50;;;4.50;;
67272;SDS011;54190;49.770;9.250;2022-07-29T06:02:56;11.73;;;5.20;;
67272;SDS011;54190;49.770;9.250;2022-07-29T06:05:22;6.73;;;5.10;;
67272;SDS011;54190;49.770;9.250;2022-07-29T06:07:48;11.20;;;4.80;;
67272;SDS011;54190;49.770;9.250;2022-07-29T06:10:14;12.33;;;5.77;;
67272;SDS011;54190;49.770;9.250;2022-07-29T06:12:39;9.07;;;4.97;;
67272;SDS011;54190;49.770;9.250;2022-07-29T06:15:05;9.90;;;4.80;;
67272;SDS011;54190;49.770;9.250;2022-07-29T06:17:31;7.03;;;5.00;;
67272;SDS011;54190;49.770;9.250;2022-07-29T06:19:57;9.57;;;4.90;;
67272;SDS011;54190;49.770;9.250;2022-07-29T06:22:23;9.50;;;5.30;;
67272;SDS011;54190;49.770;9.250;2022-07-29T06:24:50;11.50;;;6.03;;
67272;SDS011;54190;49.770;9.250;2022-07-29T06:27:15;7.97;;;5.17;;
67272;SDS011;54190;49.770;9.250;2022-07-29T06:29:44;9.00;;;5.27;;
67272;SDS011;54190;49.770;9.250;2022-07-29T06:32:10;8.90;;;4.70;;
67272;SDS011;54190;49.770;9.250;2022-07-29T06:34:36;10.00;;;4.97;;
67272;SDS011;54190;49.770;9.250;2022-07-29T06:37:08;7.40;;;5.00;;
67272;SDS011;54190;49.770;9.250;2022-07-29T06:39:37;9.27;;;5.23;;
67272;SDS011;54190;49.770;9.250;2022-07-29T06:42:06;6.50;;;4.87;;
67272;SDS011;54190;49.770;9.250;2022-07-29T06:44:32;25.27;;;6.10;;
67272;SDS011;54190;49.770;9.250;2022-07-29T06:47:01;14.43;;;4.70;;
67272;SDS011;54190;49.770;9.250;2022-07-29T06:49:27;7.67;;;4.30;;
67272;SDS011;54190;49.770;9.250;2022-07-29T06:51:54;6.60;;;4.80;;
67272;SDS011;54190;49.770;9.250;2022-07-29T06:54:20;8.10;;;5.00;;
67272;SDS011;54190;49.770;9.250;2022-07-29T06:56:46;8.60;;;4.70;;
67272;SDS011;54190;49.770;9.250;2022-07-29T06:59:12;6.07;;;4.40;;
67272;SDS011;54190;49.770;9.250;2022-07-29T07:01:39;5.80;;;4.17;;
67272;SDS011;54190;49.770;9.250;2022-07-29T07:04:06;13.43;;;4.13;;
67272;SDS011;54190;49.770;9.250;2022-07-29T07:06:33;6.63;;;3.80;;
67272;SDS011;54190;49.770;9.250;2022-07-29T07:09:00;8.63;;;4.40;;
67272;SDS011;54190;49.770;9.250;2022-07-29T07:11:26;8.17;;;4.77;;
67272;SDS011;54190;49.770;9.250;2022-07-29T07:13:52;4.80;;;3.63;;
67272;SDS011;54190;49.770;9.250;2022-07-29T07:16:18;8.13;;;3.93;;
67272;SDS011;54190;49.770;9.250;2022-07-29T07:18:44;8.10;;;3.90;;
67272;SDS011;54190;49.770;9.250;2022-07-29T07:21:10;6.70;;;4.20;;
67272;SDS011;54190;49.770;9.250;2022-07-29T07:23:36;9.80;;;3.80;;
67272;SDS011;54190;49.770;9.250;2022-07-29T07:26:02;9.13;;;4.10;;
67272;SDS011;54190;49.770;9.250;2022-07-29T07:28:28;5.93;;;3.40;;
67272;SDS011;54190;49.770;9.250;2022-07-29T07:30:54;8.57;;;3.87;;
67272;SDS011;54190;49.770;9.250;2022-07-29T07:33:19;4.10;;;3.70;;
67272;SDS011;54190;49.770;9.250;2022-07-29T07:35:45;7.43;;;3.73;;
67272;SDS011;54190;49.770;9.250;2022-07-29T07:38:11;10.53;;;4.00;;
67272;SDS011;54190;49.770;9.250;2022-07-29T07:40:37;25.53;;;4.50;;
67272;SDS011;54190;49.770;9.250;2022-07-29T07:43:03;14.23;;;3.67;;
67272;SDS011;54190;49.770;9.250;2022-07-29T07:45:29;8.73;;;4.10;;
67272;SDS011;54190;49.770;9.250;2022-07-29T07:47:57;6.70;;;3.67;;
67272;SDS011;54190;49.770;9.250;2022-07-29T07:50:23;5.13;;;3.63;;
67272;SDS011;54190;49.770;9.250;2022-07-29T07:52:50;5.80;;;3.77;;
67272;SDS011;54190;49.770;9.250;2022-07-29T07:55:17;8.03;;;4.17;;
67272;SDS011;54190;49.770;9.250;2022-07-29T07:57:44;5.33;;;3.97;;
67272;SDS011;54190;49.770;9.250;2022-07-29T08:00:11;5.93;;;3.47;;
67272;SDS011;54190;49.770;9.250;2022-07-29T08:02:38;5.43;;;4.00;;
67272;SDS011;54190;49.770;9.250;2022-07-29T08:05:05;8.33;;;3.93;;
67272;SDS011;54190;49.770;9.250;2022-07-29T08:07:32;7.40;;;3.90;;
67272;SDS011;54190;49.770;9.250;2022-07-29T08:09:58;7.43;;;4.00;;
67272;SDS011;54190;49.770;9.250;2022-07-29T08:12:24;6.20;;;4.07;;
67272;SDS011;54190;49.770;9.250;2022-07-29T08:14:50;8.27;;;4.40;;
67272;SDS011;54190;49.770;9.250;2022-07-29T08:17:15;10.33;;;4.13;;
67272;SDS011;54190;49.770;9.250;2022-07-29T08:19:41;6.60;;;3.90;;
67272;SDS011;54190;49.770;9.250;2022-07-29T08:22:07;7.33;;;3.77;;
67272;SDS011;54190;49.770;9.250;2022-07-29T08:24:32;7.37;;;3.70;;
67272;SDS011;54190;49.770;9.250;2022-07-29T08:27:17;7.63;;;4.00;;
67272;SDS011;54190;49.770;9.250;2022-07-29T08:29:43;8.43;;;4.10;;
67272;SDS011;54190;49.770;9.250;2022-07-29T08:32:09;13.57;;;4.13;;
67272;SDS011;54190;49.770;9.250;2022-07-29T08:34:34;7.00;;;4.00;;
67272;SDS011;54190;49.770;9.250;2022-07-29T08:37:00;9.17;;;4.63;;
67272;SDS011;54190;49.770;9.250;2022-07-29T08:39:26;7.53;;;4.13;;
67272;SDS011;54190;49.770;9.250;2022-07-29T08:41:52;6.80;;;4.50;;
67272;SDS011;54190;49.770;9.250;2022-07-29T08:44:18;6.10;;;4.40;;
67272;SDS011;54190;49.770;9.250;2022-07-29T08:46:44;7.87;;;3.63;;
67272;SDS011;54190;49.770;9.250;2022-07-29T08:49:10;9.90;;;3.80;;
67272;SDS011;54190;49.770;9.250;2022-07-29T08:51:36;5.23;;;4.00;;
67272;SDS011;54190;49.770;9.250;2022-07-29T08:54:04;5.07;;;3.90;;
67272;SDS011;54190;49.770;9.250;2022-07-29T08:56:31;10.23;;;4.13;;
67272;SDS011;54190;49.770;9.250;2022-07-29T08:58:58;7.03;;;4.00;;
67272;SDS011;54190;49.770;9.250;2022-07-29T09:01:27;4.77;;;3.80;;
67272;SDS011;54190;49.770;9.250;2022-07-29T09:03:55;6.60;;;4.80;;
67272;SDS011;54190;49.770;9.250;2022-07-29T09:06:23;7.83;;;4.83;;
67272;SDS011;54190;49.770;9.250;2022-07-29T09:08:53;7.57;;;4.20;;
67272;SDS011;54190;49.770;9.250;2022-07-29T09:11:23;7.80;;;4.20;;
67272;SDS011;54190;49.770;9.250;2022-07-29T09:13:49;5.97;;;4.20;;
67272;SDS011;54190;49.770;9.250;2022-07-29T09:16:15;5.87;;;4.13;;
67272;SDS011;54190;49.770;9.250;2022-07-29T09:18:41;7.23;;;4.40;;
67272;SDS011;54190;49.770;9.250;2022-07-29T09:21:10;7.80;;;4.80;;
67272;SDS011;54190;49.770;9.250;2022-07-29T09:24:00;8.57;;;5.20;;
67272;SDS011;54190;49.770;9.250;2022-07-29T09:26:35;7.33;;;4.37;;
67272;SDS011;54190;49.770;9.250;2022-07-29T09:29:12;8.33;;;4.90;;
67272;SDS011;54190;49.770;9.250;2022-07-29T09:31:41;4.90;;;3.93;;
67272;SDS011;54190;49.770;9.250;2022-07-29T09:34:08;5.43;;;4.47;;
67272;SDS011;54190;49.770;9.250;2022-07-29T09:36:38;8.00;;;4.77;;
67272;SDS011;54190;49.770;9.250;2022-07-29T09:39:15;11.23;;;5.30;;
67272;SDS011;54190;49.770;9.250;2022-07-29T09:41:52;6.63;;;4.97;;
67272;SDS011;54190;49.770;9.250;2022-07-29T09:44:19;7.03;;;4.53;;
67272;SDS011;54190;49.770;9.250;2022-07-29T09:49:57;7.87;;;4.40;;
67272;SDS011;54190;49.770;9.250;2022-07-29T09:52:27;7.40;;;4.47;;
67272;SDS011;54190;49.770;9.250;2022-07-29T09:55:04;7.27;;;4.70;;
67272;SDS011;54190;49.770;9.250;2022-07-29T09:57:35;5.83;;;4.40;;
67272;SDS011;54190;49.770;9.250;2022-07-29T10:00:03;5.03;;;4.47;;
67272;SDS011;54190;49.770;9.250;2022-07-29T10:02:38;7.37;;;4.60;;
67272;SDS011;54190;49.770;9.250;2022-07-29T10:05:09;4.97;;;4.47;;
67272;SDS011;54190;49.770;9.250;2022-07-29T10:07:57;8.03;;;4.50;;
67272;SDS011;54190;49.770;9.250;2022-07-29T10:10:27;5.37;;;4.33;;
67272;SDS011;54190;49.770;9.250;2022-07-29T10:13:16;6.17;;;3.93;;
67272;SDS011;54190;49.770;9.250;2022-07-29T10:15:43;5.03;;;4.00;;
67272;SDS011;54190;49.770;9.250;2022-07-29T10:18:14;8.00;;;4.10;;
67272;SDS011;54190;49.770;9.250;2022-07-29T10:20:42;6.10;;;4.93;;
67272;SDS011;54190;49.770;9.250;2022-07-29T10:23:08;5.53;;;4.30;;
67272;SDS011;54190;49.770;9.250;2022-07-29T10:25:34;9.13;;;4.70;;
67272;SDS011;54190;49.770;9.250;2022-07-29T10:28:00;5.60;;;5.00;;
67272;SDS011;54190;49.770;9.250;2022-07-29T10:30:26;7.53;;;4.90;;
67272;SDS011;54190;49.770;9.250;2022-07-29T10:44:01;5.37;;;4.50;;
67272;SDS011;54190;49.770;9.250;2022-07-29T10:46:37;8.93;;;4.57;;
67272;SDS011;54190;49.770;9.250;2022-07-29T10:57:22;6.73;;;4.63;;
67272;SDS011;54190;49.770;9.250;2022-07-29T10:59:47;4.90;;;4.47;;
67272;SDS011;54190;49.770;9.250;2022-07-29T11:05:04;6.97;;;4.60;;
67272;SDS011;54190;49.770;9.250;2022-07-29T11:07:32;12.63;;;5.00;;
67272;SDS011;54190;49.770;9.250;2022-07-29T11:15:09;9.63;;;4.77;;
67272;SDS011;54190;49.770;9.250;2022-07-29T11:23:29;9.10;;;4.30;;
67272;SDS011;54190;49.770;9.250;2022-07-29T11:28:51;6.07;;;5.00;;
67272;SDS011;54190;49.770;9.250;2022-07-29T11:34:16;8.43;;;5.37;;
67272;SDS011;54190;49.770;9.250;2022-07-29T11:39:30;5.37;;;4.87;;
67272;SDS011;54190;49.770;9.250;2022-07-29T11:47:58;7.23;;;5.10;;
67272;SDS011;54190;49.770;9.250;2022-07-29T11:50:29;8.30;;;5.00;;
67272;SDS011;54190;49.770;9.250;2022-07-29T11:53:00;6.23;;;4.87;;
67272;SDS011;54190;49.770;9.250;2022-07-29T11:55:27;7.40;;;4.40;;
67272;SDS011;54190;49.770;9.250;2022-07-29T11:57:53;6.97;;;5.03;;
67272;SDS011;54190;49.770;9.250;2022-07-29T12:03:06;8.07;;;4.77;;
67272;SDS011;54190;49.770;9.250;2022-07-29T12:05:43;8.00;;;5.10;;
67272;SDS011;54190;49.770;9.250;2022-07-29T12:08:13;6.27;;;4.80;;
67272;SDS011;54190;49.770;9.250;2022-07-29T12:10:41;5.90;;;5.30;;
67272;SDS011;54190;49.770;9.250;2022-07-29T12:13:07;6.30;;;5.70;;
67272;SDS011;54190;49.770;9.250;2022-07-29T12:15:34;5.60;;;5.10;;
67272;SDS011;54190;49.770;9.250;2022-07-29T12:18:13;5.93;;;5.33;;
67272;SDS011;54190;49.770;9.250;2022-07-29T12:20:40;7.10;;;5.60;;
67272;SDS011;54190;49.770;9.250;2022-07-29T12:23:06;6.00;;;5.50;;
67272;SDS011;54190;49.770;9.250;2022-07-29T12:25:34;6.83;;;5.13;;
67272;SDS011;54190;49.770;9.250;2022-07-29T12:28:01;8.53;;;5.57;;
67272;SDS011;54190;49.770;9.250;2022-07-29T12:30:36;5.50;;;4.57;;
67272;SDS011;54190;49.770;9.250;2022-07-29T12:33:11;7.47;;;5.47;;
67272;SDS011;54190;49.770;9.250;2022-07-29T12:35:38;7.80;;;5.13;;
67272;SDS011;54190;49.770;9.250;2022-07-29T12:38:04;11.90;;;5.70;;
67272;SDS011;54190;49.770;9.250;2022-07-29T12:40:30;6.73;;;4.90;;
67272;SDS011;54190;49.770;9.250;2022-07-29T12:45:32;6.97;;;5.17;;
67272;SDS011;54190;49.770;9.250;2022-07-29T12:47:58;7.63;;;5.00;;
67272;SDS011;54190;49.770;9.250;2022-07-29T12:50:23;7.70;;;5.30;;
67272;SDS011;54190;49.770;9.250;2022-07-29T12:52:50;5.53;;;4.90;;
67272;SDS011;54190;49.770;9.250;2022-07-29T12:55:16;8.90;;;5.77;;
67272;SDS011;54190;49.770;9.250;2022-07-29T12:58:05;5.43;;;4.93;;
67272;SDS011;54190;49.770;9.250;2022-07-29T13:00:31;6.30;;;5.33;;
67272;SDS011;54190;49.770;9.250;2022-07-29T13:02:57;5.60;;;4.83;;
67272;SDS011;54190;49.770;9.250;2022-07-29T13:05:38;5.83;;;5.23;;
67272;SDS011;54190;49.770;9.250;2022-07-29T13:08:15;7.00;;;5.13;;
67272;SDS011;54190;49.770;9.250;2022-07-29T13:10:43;5.07;;;4.57;;
67272;SDS011;54190;49.770;9.250;2022-07-29T13:13:10;6.03;;;5.43;;
67272;SDS011;54190;49.770;9.250;2022-07-29T13:15:38;6.13;;;4.93;;
67272;SDS011;54190;49.770;9.250;2022-07-29T13:18:25;9.43;;;5.47;;
67272;SDS011;54190;49.770;9.250;2022-07-29T13:21:11;6.23;;;5.00;;
67272;SDS011;54190;49.770;9.250;2022-07-29T13:23:39;7.30;;;5.30;;
67272;SDS011;54190;49.770;9.250;2022-07-29T13:26:05;9.80;;;5.40;;
67272;SDS011;54190;49.770;9.250;2022-07-29T13:28:32;6.73;;;5.50;;
67272;SDS011;54190;49.770;9.250;2022-07-29T13:30:59;6.30;;;4.87;;
67272;SDS011;54190;49.770;9.250;2022-07-29T13:33:25;7.37;;;4.97;;
67272;SDS011;54190;49.770;9.250;2022-07-29T13:35:51;6.57;;;5.17;;
67272;SDS011;54190;49.770;9.250;2022-07-29T13:38:16;6.33;;;5.20;;
67272;SDS011;54190;49.770;9.250;2022-07-29T13:40:42;8.77;;;5.23;;
67272;SDS011;54190;49.770;9.250;2022-07-29T13:43:09;5.83;;;5.13;;
67272;SDS011;54190;49.770;9.250;2022-07-29T13:45:35;6.50;;;4.80;;
67272;SDS011;54190;49.770;9.250;2022-07-29T13:48:01;9.43;;;5.40;;
67272;SDS011;54190;49.770;9.250;2022-07-29T13:50:28;5.90;;;5.23;;
67272;SDS011;54190;49.770;9.250;2022-07-29T13:52:54;5.93;;;4.70;;
67272;SDS011;54190;49.770;9.250;2022-07-29T13:55:20;12.20;;;5.00;;
67272;SDS011;54190;49.770;9.250;2022-07-29T13:57:46;7.83;;;5.77;;
67272;SDS011;54190;49.770;9.250;2022-07-29T14:00:13;12.13;;;6.10;;
67272;SDS011;54190;49.770;9.250;2022-07-29T14:02:40;6.77;;;6.07;;
67272;SDS011;54190;49.770;9.250;2022-07-29T14:05:06;9.80;;;5.10;;
67272;SDS011;54190;49.770;9.250;2022-07-29T14:07:32;5.97;;;5.23;;
67272;SDS011;54190;49.770;9.250;2022-07-29T14:09:58;7.57;;;5.27;;
67272;SDS011;54190;49.770;9.250;2022-07-29T14:12:24;9.63;;;5.40;;
67272;SDS011;54190;49.770;9.250;2022-07-29T14:14:49;7.30;;;5.83;;
67272;SDS011;54190;49.770;9.250;2022-07-29T14:17:15;7.30;;;5.50;;
67272;SDS011;54190;49.770;9.250;2022-07-29T14:19:41;12.07;;;6.37;;
67272;SDS011;54190;49.770;9.250;2022-07-29T14:22:07;11.90;;;7.03;;
67272;SDS011;54190;49.770;9.250;2022-07-29T14:24:33;11.07;;;7.60;;
67272;SDS011;54190;49.770;9.250;2022-07-29T14:27:00;14.23;;;9.07;;
67272;SDS011;54190;49.770;9.250;2022-07-29T14:29:26;13.00;;;9.90;;
67272;SDS011;54190;49.770;9.250;2022-07-29T14:31:53;17.77;;;9.13;;
67272;SDS011;54190;49.770;9.250;2022-07-29T14:34:18;13.00;;;9.27;;
67272;SDS011;54190;49.770;9.250;2022-07-29T14:36:44;14.77;;;8.73;;
67272;SDS011;54190;49.770;9.250;2022-07-29T14:39:10;10.70;;;7.90;;
67272;SDS011;54190;49.770;9.250;2022-07-29T14:41:36;10.40;;;8.00;;
67272;SDS011;54190;49.770;9.250;2022-07-29T14:44:03;10.03;;;7.73;;
67272;SDS011;54190;49.770;9.250;2022-07-29T14:46:29;15.90;;;9.00;;
67272;SDS011;54190;49.770;9.250;2022-07-29T14:48:54;16.03;;;9.53;;
67272;SDS011;54190;49.770;9.250;2022-07-29T14:51:20;11.83;;;8.60;;
67272;SDS011;54190;49.770;9.250;2022-07-29T14:53:46;14.33;;;8.13;;
67272;SDS011;54190;49.770;9.250;2022-07-29T14:56:12;13.93;;;7.90;;
67272;SDS011;54190;49.770;9.250;2022-07-29T14:58:37;10.97;;;7.13;;
67272;SDS011;54190;49.770;9.250;2022-07-29T15:01:03;9.70;;;6.80;;
67272;SDS011;54190;49.770;9.250;2022-07-29T15:03:29;9.33;;;7.20;;
67272;SDS011;54190;49.770;9.250;2022-07-29T15:05:55;12.00;;;7.50;;
67272;SDS011;54190;49.770;9.250;2022-07-29T15:08:20;12.80;;;8.43;;
67272;SDS011;54190;49.770;9.250;2022-07-29T15:10:46;10.17;;;7.90;;
67272;SDS011;54190;49.770;9.250;2022-07-29T15:13:12;12.07;;;8.83;;
67272;SDS011;54190;49.770;9.250;2022-07-29T15:15:38;11.60;;;8.10;;
67272;SDS011;54190;49.770;9.250;2022-07-29T15:18:04;10.17;;;7.07;;
67272;SDS011;54190;49.770;9.250;2022-07-29T15:20:29;8.07;;;6.40;;
67272;SDS011;54190;49.770;9.250;2022-07-29T15:22:55;8.93;;;6.47;;
67272;SDS011;54190;49.770;9.250;2022-07-29T15:25:24;11.40;;;7.40;;
67272;SDS011;54190;49.770;9.250;2022-07-29T15:27:51;9.90;;;6.87;;
67272;SDS011;54190;49.770;9.250;2022-07-29T15:30:16;13.67;;;6.77;;
67272;SDS011;54190;49.770;9.250;2022-07-29T15:32:43;9.43;;;7.03;;
67272;SDS011;54190;49.770;9.250;2022-07-29T15:35:09;10.30;;;7.20;;
67272;SDS011;54190;49.770;9.250;2022-07-29T15:37:37;11.20;;;7.40;;
67272;SDS011;54190;49.770;9.250;2022-07-29T15:40:06;9.23;;;7.70;;
67272;SDS011;54190;49.770;9.250;2022-07-29T15:42:33;10.53;;;7.30;;
67272;SDS011;54190;49.770;9.250;2022-07-29T15:45:01;14.03;;;8.43;;
67272;SDS011;54190;49.770;9.250;2022-07-29T15:47:28;14.87;;;8.00;;
67272;SDS011;54190;49.770;9.250;2022-07-29T15:49:54;10.23;;;7.30;;
67272;SDS011;54190;49.770;9.250;2022-07-29T15:52:19;11.03;;;7.63;;
67272;SDS011;54190;49.770;9.250;2022-07-29T15:54:45;10.60;;;8.30;;